Time;durP1;ratioP1;P1;durP2;ratioP2;P2;SDS_P1;SDS_P2;PMS_P1;PMS_P2;Temp;Humidity;BMP_temperature;BMP_pressure;BME280_temperature;BME280_humidity;BME280_pressure;Samples;Min_cycle;Max_cycle;Signal;HPM_P1;HPM_P2
2022/05/29 00:01:47;;;;;;;4.50;2.80;;;;;;;24.53;48.52;100377.75;107188;1283;61266;-83
2022/05/29 00:04:13;;;;;;;4.90;2.60;;;;;;;24.53;48.50;100382.45;106907;1283;61105;-82
2022/05/29 00:06:42;;;;;;;6.40;2.90;;;;;;;24.53;48.41;100386.95;106904;1282;61289;-82
2022/05/29 00:09:08;;;;;;;5.70;2.50;;;;;;;24.53;48.50;100381.16;106621;1286;61383;-80
2022/05/29 00:11:34;;;;;;;3.80;2.50;;;;;;;24.53;48.52;100375.10;106940;1283;61166;-85
2022/05/29 00:14:00;;;;;;;6.40;2.50;;;;;;;24.53;48.48;100366.80;106920;1283;61523;-80
2022/05/29 00:16:30;;;;;;;4.20;2.50;;;;;;;24.53;48.49;100361.26;106924;1283;61288;-83
2022/05/29 00:18:55;;;;;;;;;;;;;;;24.52;48.54;100360.37;106598;1284;61800;-82
2022/05/29 00:21:21;;;;;;;4.90;2.40;;;;;;;24.50;48.57;100354.33;106923;1283;61391;-81
2022/05/29 00:23:49;;;;;;;4.20;2.70;;;;;;;24.50;48.46;100347.83;106590;1284;61640;-82
2022/05/29 00:26:17;;;;;;;5.40;2.60;;;;;;;24.50;48.50;100342.05;107143;1283;74774;-83
2022/05/29 00:28:43;;;;;;;4.30;2.40;;;;;;;24.50;48.50;100344.79;106888;1285;61290;-81
2022/05/29 00:31:10;;;;;;;5.80;2.50;;;;;;;24.49;48.51;100345.89;106917;1283;59328;-83
2022/05/29 00:33:35;;;;;;;4.60;2.60;;;;;;;24.50;48.51;100353.42;106749;1283;61368;-82
2022/05/29 00:36:01;;;;;;;4.50;2.60;;;;;;;24.50;48.52;100364.05;106910;1283;61263;-83
2022/05/29 00:38:27;;;;;;;5.50;2.50;;;;;;;24.50;48.51;100369.41;106937;1283;61315;-82
2022/05/29 00:41:22;;;;;;;4.70;2.30;;;;;;;24.50;48.51;100378.56;106878;1283;61236;-82
2022/05/29 00:44:06;;;;;;;4.90;2.90;;;;;;;24.50;48.57;100396.61;106659;1285;72814;-82
2022/05/29 00:46:32;;;;;;;4.70;2.40;;;;;;;24.50;48.50;100401.85;107143;1283;75306;-82
2022/05/29 00:48:57;;;;;;;4.90;2.40;;;;;;;24.50;48.62;100404.12;106938;1283;61266;-81
2022/05/29 00:51:23;;;;;;;6.10;2.60;;;;;;;24.50;48.58;100407.35;106776;1283;61208;-82
2022/05/29 00:53:49;;;;;;;3.80;2.50;;;;;;;24.51;48.61;100403.74;106900;1284;61244;-83
2022/05/29 00:56:15;;;;;;;3.80;2.40;;;;;;;24.50;48.65;100402.30;106859;1286;61215;-84
2022/05/29 00:58:41;;;;;;;5.10;2.50;;;;;;;24.50;48.67;100404.86;106929;1283;61252;-83
2022/05/29 01:01:06;;;;;;;5.40;3.00;;;;;;;24.50;48.69;100403.23;106973;1283;61252;-82
2022/05/29 01:03:32;;;;;;;4.20;2.40;;;;;;;24.50;48.59;100400.73;106925;1283;61229;-82
2022/05/29 01:05:58;;;;;;;4.50;2.60;;;;;;;24.50;48.63;100397.84;106928;1283;61254;-82
2022/05/29 01:08:29;;;;;;;4.30;2.50;;;;;;;24.50;48.63;100391.54;106878;1286;61119;-82
2022/05/29 01:11:21;;;;;;;6.00;2.50;;;;;;;24.50;48.62;100388.66;106923;1283;61129;-84
2022/05/29 01:13:52;;;;;;;5.50;2.60;;;;;;;24.50;48.65;100380.40;107154;1283;61240;-83
2022/05/29 01:16:56;;;;;;;3.80;2.30;;;;;;;24.49;48.67;100378.10;107123;1283;72645;-83
2022/05/29 01:19:37;;;;;;;4.50;2.40;;;;;;;24.49;48.70;100378.16;106923;1283;75596;-82
2022/05/29 01:22:08;;;;;;;5.90;3.00;;;;;;;24.48;48.55;100397.98;107180;1283;61573;-81
2022/05/29 01:24:55;;;;;;;5.00;2.70;;;;;;;24.49;48.56;100404.43;107167;1282;61009;-83
2022/05/29 01:28:06;;;;;;;4.20;2.50;;;;;;;24.49;48.71;100412.89;107156;1283;72390;-82
2022/05/29 01:30:34;;;;;;;4.20;2.60;;;;;;;24.48;48.66;100422.16;106515;1286;75804;-81
2022/05/29 01:33:37;;;;;;;7.50;2.60;;;;;;;24.48;48.72;100427.32;106270;1287;61396;-82
2022/05/29 01:36:17;;;;;;;4.70;2.60;;;;;;;24.47;48.72;100430.13;106503;1287;61287;-80
2022/05/29 01:38:56;;;;;;;5.10;2.50;;;;;;;24.48;48.73;100431.70;106457;1287;72897;-82
2022/05/29 01:41:43;;;;;;;6.10;2.30;;;;;;;24.48;48.63;100440.33;106425;1287;74810;-83
2022/05/29 01:44:10;;;;;;;4.70;2.50;;;;;;;24.47;48.78;100443.42;106449;1287;61154;-83
2022/05/29 01:46:36;;;;;;;4.00;2.30;;;;;;;24.48;48.65;100446.43;106530;1287;61560;-81
2022/05/29 01:49:22;;;;;;;4.70;2.20;;;;;;;24.48;48.75;100452.38;106425;1287;61229;-82
2022/05/29 01:51:55;;;;;;;5.30;2.70;;;;;;;24.48;48.79;100451.87;106491;1287;74482;-82
2022/05/29 01:54:27;;;;;;;4.10;2.50;;;;;;;24.47;48.65;100453.86;106530;1287;61849;-85
2022/05/29 01:56:56;;;;;;;4.90;2.40;;;;;;;24.47;48.62;100454.58;106522;1287;61174;-82
2022/05/29 01:59:27;;;;;;;6.60;2.80;;;;;;;24.47;48.64;100460.70;106408;1287;72821;-82
2022/05/29 02:01:56;;;;;;;4.30;2.60;;;;;;;24.47;48.68;100462.85;106485;1283;74999;-81
2022/05/29 02:04:24;;;;;;;5.10;2.50;;;;;;;24.47;48.63;100460.52;106905;1283;61303;-81
2022/05/29 02:10:01;;;;;;;4.60;2.70;;;;;;;24.47;48.72;100463.42;107162;1283;73716;-82
2022/05/29 02:12:27;;;;;;;5.50;2.40;;;;;;;24.47;48.69;100459.33;106612;1286;75505;-83
2022/05/29 02:15:01;;;;;;;3.80;2.40;;;;;;;24.46;48.80;100459.70;106886;1284;61253;-80
2022/05/29 02:17:31;;;;;;;6.00;2.50;;;;;;;24.46;48.60;100461.69;106934;1283;61345;-82
2022/05/29 02:20:00;;;;;;;5.30;2.60;;;;;;;24.46;48.63;100466.37;107172;1283;72826;-83
2022/05/29 02:22:28;;;;;;;4.80;2.80;;;;;;;24.46;48.67;100470.86;106881;1283;74615;-83
2022/05/29 02:25:11;;;;;;;5.10;2.60;;;;;;;24.45;48.76;100472.70;106913;1283;61177;-82
2022/05/29 02:27:40;;;;;;;5.90;2.70;;;;;;;24.46;48.73;100474.82;106846;1283;61219;-85
2022/05/29 02:30:07;;;;;;;6.00;2.60;;;;;;;24.46;48.72;100468.90;107178;1283;73858;-84
2022/05/29 02:32:50;;;;;;;4.40;2.70;;;;;;;24.46;48.76;100466.60;106889;1283;61264;-83
2022/05/29 02:35:19;;;;;;;4.40;2.70;;;;;;;24.46;48.61;100461.20;106932;1283;61291;-83
2022/05/29 02:37:56;;;;;;;4.40;2.50;;;;;;;24.44;48.61;100455.34;106587;1284;61281;-82
2022/05/29 02:40:32;;;;;;;4.00;2.60;;;;;;;24.45;48.63;100453.19;106879;1283;73618;-81
2022/05/29 02:43:06;;;;;;;4.90;2.80;;;;;;;24.45;48.66;100456.59;106855;1284;75735;-83
2022/05/29 02:45:41;;;;;;;4.80;2.90;;;;;;;24.45;48.67;100465.59;107193;1283;61138;-82
2022/05/29 02:48:36;;;;;;;4.00;2.60;;;;;;;24.45;48.73;100469.88;106548;1284;61503;-80
2022/05/29 02:51:14;;;;;;;4.70;3.00;;;;;;;24.44;48.61;100472.11;107126;1283;72146;-80
2022/05/29 02:53:44;;;;;;;3.70;2.40;;;;;;;24.44;48.61;100476.59;107182;1283;74642;-83
2022/05/29 02:56:10;;;;;;;6.50;2.80;;;;;;;24.44;48.67;100478.95;106868;1286;61528;-83
2022/05/29 02:58:36;;;;;;;4.60;2.50;;;;;;;24.44;48.66;100481.08;106582;1284;61277;-83
2022/05/29 03:01:25;;;;;;;5.10;2.80;;;;;;;24.44;48.66;100478.95;106929;1283;61160;-85
2022/05/29 03:04:04;;;;;;;4.40;2.50;;;;;;;24.43;48.56;100482.40;106888;1284;74805;-82
2022/05/29 03:07:04;;;;;;;4.30;2.70;;;;;;;24.44;48.62;100484.73;107230;1283;61780;-84
2022/05/29 03:09:49;;;;;;;4.10;2.40;;;;;;;24.43;48.63;100489.09;107195;1283;61195;-82
2022/05/29 03:12:45;;;;;;;4.30;2.80;;;;;;;24.43;48.57;100486.95;106852;1284;74193;-83
2022/05/29 03:15:25;;;;;;;4.00;2.70;;;;;;;24.43;48.53;100481.22;107153;1283;76092;-83
2022/05/29 03:18:10;;;;;;;4.70;2.50;;;;;;;24.42;48.49;100474.05;107163;1283;61364;-81
2022/05/29 03:20:43;;;;;;;5.10;2.70;;;;;;;24.42;48.51;100473.70;106948;1283;61389;-84
2022/05/29 03:23:19;;;;;;;5.10;2.60;;;;;;;24.42;48.46;100477.30;106933;1283;73913;-83
2022/05/29 03:25:48;;;;;;;3.50;2.30;;;;;;;24.42;48.53;100467.98;106926;1283;74682;-84
2022/05/29 03:28:17;;;;;;;;;;;;;;;24.42;48.51;100461.52;106903;1282;61246;-82
2022/05/29 03:30:45;;;;;;;;;;;;;;;24.39;48.50;100466.08;106924;1283;61824;-81
2022/05/29 03:33:12;;;;;;;5.60;2.60;;;;;;;24.38;48.56;100468.69;106874;1283;71790;-83
2022/05/29 03:35:56;;;;;;;4.10;2.30;;;;;;;24.39;48.46;100473.13;106877;1283;76198;-81
2022/05/29 03:38:21;;;;;;;3.70;2.60;;;;;;;24.39;48.56;100470.77;107184;1281;61325;-80
2022/05/29 03:40:48;;;;;;;4.60;2.60;;;;;;;24.38;48.46;100467.60;106856;1284;61769;-79
2022/05/29 03:43:13;;;;;;;4.60;2.60;;;;;;;24.39;48.41;100471.30;106862;1283;61239;-79
2022/05/29 03:45:39;;;;;;;4.30;2.50;;;;;;;24.39;48.40;100472.19;106615;1283;61341;-84
2022/05/29 03:48:05;;;;;;;4.90;2.50;;;;;;;24.40;48.40;100473.37;106889;1283;61236;-83
2022/05/29 03:50:31;;;;;;;4.70;2.40;;;;;;;24.40;48.36;100468.55;106863;1284;61224;-82
2022/05/29 03:52:57;;;;;;;5.40;2.50;;;;;;;24.40;48.44;100463.50;106620;1284;61913;-82
2022/05/29 03:55:24;;;;;;;4.20;2.40;;;;;;;24.40;48.31;100455.23;106606;1283;71618;-82
2022/05/29 03:57:50;;;;;;;4.40;2.50;;;;;;;24.40;48.43;100454.32;106814;1283;75501;-84
2022/05/29 04:00:16;;;;;;;5.50;2.50;;;;;;;24.40;48.44;100454.84;106887;1283;61219;-81
2022/05/29 04:02:43;;;;;;;4.20;2.80;;;;;;;24.41;48.35;100451.56;106608;1283;61133;-83
2022/05/29 04:05:13;;;;;;;5.10;2.70;;;;;;;24.41;48.47;100457.88;106883;1283;73603;-82
2022/05/29 04:13:08;;;;;;;4.30;2.60;;;;;;;24.41;48.29;100474.94;106928;1283;61280;-84
2022/05/29 04:15:34;;;;;;;3.70;2.30;;;;;;;24.41;48.29;100486.11;106878;1283;61439;-82
2022/05/29 04:18:00;;;;;;;4.30;2.50;;;;;;;24.41;48.26;100495.41;106871;1283;61167;-81
2022/05/29 04:20:26;;;;;;;4.00;2.60;;;;;;;24.41;48.23;100502.23;106870;1283;61360;-82
2022/05/29 04:22:51;;;;;;;3.40;2.30;;;;;;;24.41;48.20;100501.18;106900;1283;61273;-83
2022/05/29 04:25:18;;;;;;;3.80;2.50;;;;;;;24.41;48.21;100497.17;106855;1284;61300;-83
2022/05/29 04:27:44;;;;;;;4.20;2.40;;;;;;;24.41;48.17;100501.18;106558;1284;61252;-82
2022/05/29 04:30:12;;;;;;;3.90;2.40;;;;;;;24.41;48.26;100501.17;106947;1283;61359;-83
2022/05/29 04:35:21;;;;;;;4.70;2.50;;;;;;;24.41;48.08;100517.40;106853;1286;61123;-82
2022/05/29 04:37:49;;;;;;;4.40;2.30;;;;;;;24.41;48.20;100533.73;107001;1283;61280;-81
2022/05/29 04:40:14;;;;;;;4.80;2.50;;;;;;;24.41;48.16;100538.19;106702;1283;61236;-82
2022/05/29 04:42:40;;;;;;;5.20;2.50;;;;;;;24.41;48.06;100537.66;106883;1283;61205;-82
2022/05/29 04:45:06;;;;;;;5.20;2.60;;;;;;;24.41;48.03;100539.09;106574;1286;61628;-82
2022/05/29 04:47:32;;;;;;;4.10;2.20;;;;;;;24.42;48.10;100538.90;107202;1283;59397;-82
2022/05/29 04:50:00;;;;;;;4.80;2.30;;;;;;;24.41;47.94;100544.30;106890;1283;61274;-83
2022/05/29 04:52:29;;;;;;;3.80;2.30;;;;;;;24.42;48.01;100546.79;106807;1286;61287;-84
2022/05/29 04:54:54;;;;;;;4.10;2.50;;;;;;;24.42;47.93;100545.19;106863;1283;61311;-85
2022/05/29 04:57:20;;;;;;;4.80;2.60;;;;;;;24.41;48.02;100543.44;106614;1283;62130;-81
2022/05/29 04:59:45;;;;;;;4.10;2.40;;;;;;;24.41;47.89;100537.48;106677;1283;61337;-81
2022/05/29 05:02:11;;;;;;;3.70;2.20;;;;;;;24.42;48.00;100534.02;106711;1283;61270;-81
2022/05/29 05:04:37;;;;;;;5.30;2.20;;;;;;;24.42;47.91;100536.52;106721;1283;61274;-81
2022/05/29 05:07:03;;;;;;;4.20;2.40;;;;;;;24.42;47.84;100541.01;106775;1283;61310;-81
2022/05/29 05:09:29;;;;;;;4.50;2.40;;;;;;;24.42;47.88;100539.19;106885;1283;72615;-86
2022/05/29 05:11:54;;;;;;;3.40;2.20;;;;;;;24.42;47.70;100538.98;106555;1284;61487;-84
2022/05/29 05:14:20;;;;;;;3.70;2.20;;;;;;;24.42;47.78;100553.94;107209;1283;61223;-82
2022/05/29 05:16:47;;;;;;;4.10;2.10;;;;;;;24.42;47.76;100554.66;106883;1286;61596;-82
2022/05/29 05:19:13;;;;;;;3.80;2.20;;;;;;;24.41;47.63;100546.45;106875;1283;61207;-83
2022/05/29 05:21:39;;;;;;;4.10;2.40;;;;;;;24.42;47.73;100538.70;106915;1286;61125;-83
2022/05/29 05:24:06;;;;;;;4.80;2.20;;;;;;;24.41;47.59;100527.25;106890;1283;61282;-83
2022/05/29 05:26:31;;;;;;;4.20;2.10;;;;;;;24.41;47.57;100529.95;106873;1283;61289;-81
2022/05/29 05:28:57;;;;;;;5.20;2.30;;;;;;;24.41;47.60;100522.80;106904;1283;61308;-81
2022/05/29 05:31:24;;;;;;;5.40;2.40;;;;;;;24.40;47.49;100519.46;106495;1286;61448;-82
2022/05/29 05:33:50;;;;;;;3.10;1.90;;;;;;;24.39;47.51;100523.61;106853;1283;75704;-82
2022/05/29 05:36:16;;;;;;;3.50;2.00;;;;;;;24.39;47.50;100523.09;107201;1283;61231;-82
2022/05/29 05:38:42;;;;;;;3.60;2.10;;;;;;;24.39;47.43;100524.02;106884;1283;61271;-82
2022/05/29 05:41:11;;;;;;;4.00;2.40;;;;;;;24.39;47.45;100532.13;106835;1285;61307;-85
2022/05/29 05:43:36;;;;;;;;;;;;;;;24.38;47.48;100556.44;106502;1284;74592;-83
2022/05/29 05:46:08;;;;;;;3.90;2.20;;;;;;;24.36;47.42;100577.33;106879;1286;61281;-81
2022/05/29 05:48:34;;;;;;;3.40;2.20;;;;;;;24.36;47.36;100573.73;106883;1283;61270;-82
2022/05/29 05:51:01;;;;;;;4.00;2.30;;;;;;;24.36;47.28;100570.30;106885;1283;59175;-86
2022/05/29 05:53:26;;;;;;;3.00;1.80;;;;;;;24.36;47.23;100561.86;106772;1285;61234;-84
2022/05/29 05:55:53;;;;;;;3.60;2.30;;;;;;;24.37;47.14;100546.55;106896;1283;61319;-82
2022/05/29 05:58:19;;;;;;;3.90;2.20;;;;;;;24.36;47.20;100539.23;106641;1284;61247;-82
2022/05/29 06:00:45;;;;;;;5.10;2.50;;;;;;;24.36;47.14;100558.85;107199;1283;61140;-80
2022/05/29 06:03:11;;;;;;;4.20;2.20;;;;;;;24.36;47.05;100574.83;106872;1283;61277;-84
2022/05/29 06:05:36;;;;;;;4.50;2.20;;;;;;;24.36;47.10;100574.46;106655;1283;61253;-84
2022/05/29 06:08:02;;;;;;;4.10;1.90;;;;;;;24.36;47.04;100573.05;106931;1283;59294;-84
2022/05/29 06:10:28;;;;;;;3.80;2.00;;;;;;;24.36;47.07;100570.83;106880;1283;61263;-82
2022/05/29 06:12:54;;;;;;;5.30;2.40;;;;;;;24.36;47.01;100566.77;106651;1283;61404;-82
2022/05/29 06:15:19;;;;;;;3.90;2.30;;;;;;;24.35;47.08;100568.77;106213;1283;847459;-81
2022/05/29 06:17:45;;;;;;;3.80;2.00;;;;;;;24.36;46.87;100576.83;106850;1283;61356;-82
2022/05/29 06:20:12;;;;;;;4.20;2.50;;;;;;;24.36;46.88;100573.95;106831;1283;61271;-82
2022/05/29 06:22:38;;;;;;;4.20;2.00;;;;;;;24.36;46.92;100576.65;106765;1286;61137;-84
2022/05/29 06:25:04;;;;;;;4.30;2.00;;;;;;;24.36;46.86;100576.64;106794;1283;61280;-80
2022/05/29 06:27:30;;;;;;;3.30;2.20;;;;;;;24.36;46.80;100564.08;106920;1283;61215;-82
2022/05/29 06:29:56;;;;;;;4.20;2.30;;;;;;;24.35;46.77;100555.84;106829;1285;61353;-82
2022/05/29 06:32:22;;;;;;;3.30;2.00;;;;;;;24.35;46.73;100566.98;107211;1283;61227;-81
2022/05/29 06:34:48;;;;;;;5.00;2.00;;;;;;;24.35;46.82;100570.20;106880;1283;61243;-82
2022/05/29 06:37:13;;;;;;;3.50;2.00;;;;;;;24.35;46.68;100566.66;106857;1283;62134;-82
2022/05/29 06:39:39;;;;;;;3.80;2.30;;;;;;;24.35;46.71;100560.70;106925;1283;61252;-82
2022/05/29 06:42:05;;;;;;;3.30;2.10;;;;;;;24.35;46.69;100544.19;106928;1283;61359;-87
2022/05/29 06:44:31;;;;;;;3.50;2.00;;;;;;;24.35;46.59;100526.41;106907;1283;61285;-84
2022/05/29 06:46:56;;;;;;;4.30;2.30;;;;;;;24.34;46.65;100510.05;106483;1284;72908;-85
2022/05/29 06:49:22;;;;;;;3.80;2.00;;;;;;;24.34;46.53;100503.77;106880;1283;61247;-83
2022/05/29 06:51:48;;;;;;;3.60;2.20;;;;;;;24.35;46.55;100505.72;107240;1283;61303;-80
2022/05/29 06:54:13;;;;;;;3.50;2.10;;;;;;;24.35;46.49;100504.64;106917;1283;61316;-86
2022/05/29 06:56:39;;;;;;;3.80;2.10;;;;;;;24.35;46.45;100496.52;107233;1283;61228;-84
2022/05/29 06:59:06;;;;;;;3.30;2.00;;;;;;;24.35;46.54;100489.67;106890;1286;61267;-82
2022/05/29 07:07:04;;;;;;;2.90;1.90;;;;;;;24.35;46.38;100500.77;106922;1283;61230;-78
2022/05/29 07:09:30;;;;;;;4.00;2.20;;;;;;;24.36;46.31;100514.58;106894;1283;73792;-83
2022/05/29 07:12:32;;;;;;;3.90;2.10;;;;;;;24.37;46.31;100529.24;107210;1283;61327;-79
2022/05/29 07:15:02;;;;;;;5.60;2.40;;;;;;;24.37;46.33;100528.71;106794;1284;61267;-81
2022/05/29 07:17:28;;;;;;;3.30;2.00;;;;;;;24.37;46.32;100524.02;106885;1283;61178;-83
2022/05/29 07:19:54;;;;;;;4.50;2.30;;;;;;;24.38;46.22;100523.23;106914;1283;61623;-84
2022/05/29 07:22:20;;;;;;;3.10;2.00;;;;;;;24.38;46.24;100528.83;106865;1283;61235;-82
2022/05/29 07:24:45;;;;;;;5.10;2.20;;;;;;;24.38;46.31;100539.93;106874;1284;61185;-84
2022/05/29 07:27:11;;;;;;;4.40;2.10;;;;;;;24.39;46.12;100546.70;107048;1283;61282;-81
2022/05/29 07:29:37;;;;;;;3.10;2.00;;;;;;;24.38;46.10;100542.95;106821;1286;61968;-82
2022/05/29 07:32:03;;;;;;;3.90;2.00;;;;;;;24.39;46.10;100547.38;107216;1283;72603;-82
2022/05/29 07:34:30;;;;;;;3.70;2.30;;;;;;;24.39;46.07;100561.08;106806;1283;74779;-84
2022/05/29 07:37:14;;;;;;;4.40;2.20;;;;;;;24.39;46.09;100563.56;106860;1284;61108;-83
2022/05/29 07:39:42;;;;;;;5.60;2.10;;;;;;;24.39;46.09;100569.64;106448;1286;61284;-83
2022/05/29 07:44:52;;;;;;;3.20;2.10;;;;;;;24.39;45.99;100574.86;106924;1283;74698;-83
2022/05/29 07:47:22;;;;;;;4.70;2.30;;;;;;;24.39;46.05;100571.64;107197;1283;61288;-82
2022/05/29 07:49:48;;;;;;;3.70;2.10;;;;;;;24.40;45.97;100560.11;106878;1283;61317;-83
2022/05/29 07:52:13;;;;;;;3.50;2.10;;;;;;;24.40;45.90;100556.30;106916;1283;61235;-81
2022/05/29 07:54:39;;;;;;;3.40;2.10;;;;;;;24.40;45.89;100544.60;106874;1283;62076;-82
2022/05/29 07:57:05;;;;;;;5.90;2.20;;;;;;;24.41;45.88;100541.48;106899;1284;61312;-82
2022/05/29 07:59:30;;;;;;;3.80;2.10;;;;;;;24.41;45.88;100541.28;106959;1283;61300;-83
2022/05/29 08:01:56;;;;;;;4.80;2.10;;;;;;;24.41;45.75;100540.55;106972;1283;61349;-84
2022/05/29 08:04:22;;;;;;;4.60;2.30;;;;;;;24.42;45.67;100539.08;106892;1284;71431;-83
2022/05/29 08:06:48;;;;;;;4.10;2.30;;;;;;;24.43;45.71;100538.08;106873;1283;61313;-81
2022/05/29 08:09:14;;;;;;;5.10;2.60;;;;;;;24.42;45.58;100542.99;106912;1283;61371;-82
2022/05/29 08:11:40;;;;;;;3.50;2.00;;;;;;;24.43;45.60;100533.56;106866;1283;61246;-86
2022/05/29 08:14:05;;;;;;;3.30;2.10;;;;;;;24.43;45.56;100523.59;107229;1283;61286;-82
2022/05/29 08:16:33;;;;;;;3.30;1.90;;;;;;;24.43;45.62;100522.17;106882;1283;61130;-84
2022/05/29 08:18:58;;;;;;;4.50;2.20;;;;;;;24.44;45.39;100521.39;106869;1284;61191;-81
2022/05/29 08:21:24;;;;;;;4.10;2.20;;;;;;;24.44;45.50;100530.18;106891;1283;61293;-83
2022/05/29 08:32:03;;;;;;;3.80;2.30;;;;;;;24.45;45.27;100543.80;107209;1283;61258;-82
2022/05/29 08:34:29;;;;;;;4.40;2.30;;;;;;;24.45;45.18;100544.73;106813;1284;61329;-81
2022/05/29 08:36:55;;;;;;;5.20;2.30;;;;;;;24.46;45.15;100545.36;106870;1283;61343;-85
2022/05/29 08:39:23;;;;;;;4.00;2.30;;;;;;;24.46;45.15;100539.81;106861;1283;61408;-84
2022/05/29 08:41:51;;;;;;;4.00;2.10;;;;;;;24.45;45.17;100533.16;106872;1283;61371;-82
2022/05/29 08:44:29;;;;;;;3.70;2.00;;;;;;;24.45;45.00;100536.27;106895;1283;61247;-83
2022/05/29 08:47:00;;;;;;;3.40;2.20;;;;;;;24.45;45.05;100513.02;106812;1284;73942;-84
2022/05/29 08:49:37;;;;;;;4.00;2.30;;;;;;;24.45;44.97;100498.30;106869;1283;75837;-83
2022/05/29 08:52:10;;;;;;;3.90;2.30;;;;;;;24.46;45.02;100499.83;106961;1283;61356;-81
2022/05/29 08:54:45;;;;;;;4.60;2.30;;;;;;;24.47;44.86;100504.48;107166;1282;60988;-80
2022/05/29 08:57:23;;;;;;;5.10;2.30;;;;;;;24.46;45.01;100498.74;107173;1283;72711;-82
2022/05/29 08:59:53;;;;;;;3.30;2.00;;;;;;;24.46;44.89;100483.83;106974;1284;75631;-82
2022/05/29 09:02:18;;;;;;;3.70;2.20;;;;;;;24.46;44.90;100487.77;106999;1283;61117;-84
2022/05/29 09:04:51;;;;;;;4.50;2.30;;;;;;;24.46;44.80;100493.20;107207;1283;61240;-82
2022/05/29 09:07:18;;;;;;;4.40;2.10;;;;;;;24.45;44.81;100494.48;106858;1283;72526;-82
2022/05/29 09:09:51;;;;;;;5.40;2.30;;;;;;;24.46;44.82;100498.06;106850;1283;74878;-83
2022/05/29 09:12:23;;;;;;;4.10;2.10;;;;;;;24.47;44.71;100505.91;106819;1284;61255;-82
2022/05/29 09:14:58;;;;;;;3.70;2.30;;;;;;;24.47;44.77;100502.13;107187;1283;61290;-83
2022/05/29 09:17:35;;;;;;;4.70;2.30;;;;;;;24.47;44.72;100497.43;106621;1285;72534;-82
2022/05/29 09:20:06;;;;;;;4.70;2.40;;;;;;;24.47;44.66;100509.99;107179;1283;75420;-82
2022/05/29 09:22:39;;;;;;;4.40;2.00;;;;;;;24.47;44.70;100524.39;106497;1284;61313;-84
2022/05/29 09:25:06;;;;;;;4.20;2.30;;;;;;;24.47;44.56;100529.25;106995;1283;61126;-83
2022/05/29 09:27:33;;;;;;;4.20;2.40;;;;;;;24.47;44.60;100532.32;106974;1284;61091;-84
2022/05/29 09:29:58;;;;;;;4.40;2.40;;;;;;;24.47;44.51;100530.36;106850;1284;76683;-84
2022/05/29 09:32:30;;;;;;;4.30;2.40;;;;;;;24.47;44.70;100524.59;106598;1284;61392;-83
2022/05/29 09:35:02;;;;;;;4.80;2.40;;;;;;;24.47;44.63;100519.20;106719;1283;61462;-79
2022/05/29 09:37:50;;;;;;;4.10;2.10;;;;;;;24.46;44.59;100527.86;106632;1283;73698;-84
2022/05/29 09:40:26;;;;;;;4.10;2.10;;;;;;;24.46;44.67;100543.51;106482;1284;74536;-83
2022/05/29 09:42:53;;;;;;;4.50;2.30;;;;;;;24.46;44.48;100547.51;106859;1284;61279;-81
2022/05/29 09:45:27;;;;;;;4.50;2.40;;;;;;;24.46;44.56;100548.20;106840;1283;61207;-82
2022/05/29 09:50:42;;;;;;;6.90;2.50;;;;;;;24.46;44.39;100530.56;106879;1283;75471;-82
2022/05/29 09:53:44;;;;;;;5.30;2.20;;;;;;;24.47;44.57;100526.78;107167;1283;61285;-83
2022/05/29 09:56:09;;;;;;;4.80;2.10;;;;;;;24.46;44.49;100532.40;106060;1290;61164;-82
2022/05/29 09:59:17;;;;;;;4.30;2.10;;;;;;;24.46;44.50;100544.63;106290;1289;61568;-82
2022/05/29 10:01:45;;;;;;;4.90;2.30;;;;;;;24.46;44.48;100549.84;105718;1294;75608;-84
2022/05/29 10:04:35;;;;;;;3.60;2.40;;;;;;;24.46;44.42;100551.83;105660;1293;61654;-81
2022/05/29 10:07:01;;;;;;;4.90;2.40;;;;;;;24.46;44.38;100550.18;105643;1295;61200;-83
2022/05/29 10:09:27;;;;;;;4.70;2.50;;;;;;;24.47;44.37;100548.36;105639;1295;61486;-84
2022/05/29 10:11:56;;;;;;;4.00;2.30;;;;;;;24.47;44.50;100549.04;105646;1295;61407;-84
2022/05/29 10:14:41;;;;;;;3.60;2.20;;;;;;;24.47;44.34;100549.44;105655;1294;61741;-85
2022/05/29 10:17:15;;;;;;;3.60;2.20;;;;;;;24.46;44.34;100539.02;105587;1294;60088;-82
2022/05/29 10:19:45;;;;;;;4.70;2.30;;;;;;;24.47;44.39;100529.81;105702;1293;73036;-83
2022/05/29 10:22:29;;;;;;;4.50;2.40;;;;;;;24.46;44.38;100534.54;105685;1293;74618;-83
2022/05/29 10:24:55;;;;;;;4.10;2.40;;;;;;;24.47;44.36;100556.64;105679;1293;61143;-82
2022/05/29 10:27:31;;;;;;;4.80;2.50;;;;;;;24.46;44.40;100562.05;105582;1294;61251;-82
2022/05/29 10:30:05;;;;;;;3.80;2.30;;;;;;;24.47;44.39;100549.59;105587;1294;73769;-85
2022/05/29 10:32:32;;;;;;;4.50;2.50;;;;;;;24.47;44.29;100525.84;105848;1290;75536;-83
2022/05/29 10:35:22;;;;;;;5.50;2.40;;;;;;;24.47;44.29;100498.73;106150;1289;61358;-83
2022/05/29 10:37:48;;;;;;;3.70;2.30;;;;;;;24.46;44.26;100508.66;107079;1284;61249;-83
2022/05/29 10:40:21;;;;;;;4.70;2.40;;;;;;;24.46;44.42;100553.41;106583;1284;61235;-83
2022/05/29 10:42:50;;;;;;;5.80;2.30;;;;;;;24.46;44.20;100584.17;106763;1284;74789;-81
2022/05/29 10:45:23;;;;;;;5.10;2.20;;;;;;;24.46;44.26;100583.50;106882;1284;61140;-83
2022/05/29 10:48:12;;;;;;;4.90;2.40;;;;;;;24.46;44.21;100578.44;107038;1284;61281;-88
2022/05/29 10:51:01;;;;;;;5.20;2.50;;;;;;;24.45;44.27;100569.18;107166;1283;72749;-83
2022/05/29 10:53:37;;;;;;;3.60;2.20;;;;;;;24.45;44.31;100560.17;106855;1284;75848;-82
2022/05/29 10:56:25;;;;;;;5.60;2.70;;;;;;;24.45;44.19;100535.92;106882;1283;61250;-81
2022/05/29 10:59:15;;;;;;;4.50;2.20;;;;;;;24.44;44.22;100526.94;107021;1284;61259;-82
2022/05/29 11:04:50;;;;;;;;;;;;;;;24.44;44.25;100521.21;106944;1283;75618;-81
2022/05/29 11:07:26;;;;;;;3.90;2.50;;;;;;;24.42;44.28;100491.00;107157;1283;61381;-84
2022/05/29 11:10:01;;;;;;;3.80;2.50;;;;;;;24.43;44.37;100463.02;107030;1284;61164;-83
2022/05/29 11:12:35;;;;;;;4.40;2.40;;;;;;;24.43;44.32;100445.91;106819;1284;72780;-83
2022/05/29 11:15:19;;;;;;;3.30;2.30;;;;;;;24.43;44.31;100439.48;107017;1284;74725;-83
2022/05/29 11:18:25;;;;;;;5.30;2.80;;;;;;;24.43;44.32;100437.29;107144;1283;61250;-82
2022/05/29 11:21:23;;;;;;;3.60;2.30;;;;;;;24.43;44.33;100429.96;107105;1283;61325;-84
2022/05/29 11:24:00;;;;;;;7.80;2.50;;;;;;;24.43;44.24;100431.01;107131;1283;72749;-82
2022/05/29 11:26:46;;;;;;;4.80;2.40;;;;;;;24.43;44.29;100435.30;107141;1283;75600;-84
2022/05/29 11:29:33;;;;;;;5.80;2.70;;;;;;;24.44;44.33;100429.11;106860;1283;61333;-81
2022/05/29 11:32:14;;;;;;;3.80;2.50;;;;;;;24.45;44.44;100440.02;106862;1283;61631;-81
2022/05/29 11:34:52;;;;;;;3.70;2.50;;;;;;;24.45;44.41;100432.99;106803;1284;73613;-82
2022/05/29 11:38:06;;;;;;;5.10;2.40;;;;;;;24.46;44.35;100439.20;107145;1283;75814;-84
2022/05/29 11:41:00;;;;;;;4.60;2.60;;;;;;;24.46;44.33;100443.51;106420;1284;61216;-84
2022/05/29 11:43:30;;;;;;;3.90;2.40;;;;;;;24.47;44.43;100445.77;106265;1289;61117;-83
2022/05/29 11:51:54;;;;;;;4.20;2.70;;;;;;;24.48;44.43;100422.64;105875;1290;61265;-82
2022/05/29 11:54:45;;;;;;;3.60;2.60;;;;;;;24.49;44.36;100420.57;106146;1290;61190;-83
2022/05/29 11:57:15;;;;;;;5.80;2.90;;;;;;;24.50;44.35;100415.14;106157;1290;73221;-84
2022/05/29 12:00:01;;;;;;;4.70;2.90;;;;;;;24.50;44.42;100412.61;106166;1289;75680;-82
2022/05/29 12:02:32;;;;;;;4.70;3.00;;;;;;;24.50;44.47;100410.23;106304;1289;61138;-82
2022/05/29 12:05:04;;;;;;;3.90;2.90;;;;;;;24.51;44.49;100416.44;106174;1290;61237;-82
2022/05/29 12:07:37;;;;;;;5.00;3.30;;;;;;;24.51;44.40;100418.39;106300;1289;72880;-83
2022/05/29 12:10:07;;;;;;;4.70;3.20;;;;;;;24.52;44.52;100413.86;106013;1290;76089;-84
2022/05/29 12:12:49;;;;;;;4.60;2.90;;;;;;;24.52;44.45;100414.37;106015;1289;61249;-83
2022/05/29 12:15:16;;;;;;;4.10;3.10;;;;;;;24.52;44.47;100409.86;106177;1290;61347;-82
2022/05/29 12:17:49;;;;;;;4.70;3.10;;;;;;;24.52;44.44;100409.14;106009;1290;71682;-82
2022/05/29 12:20:24;;;;;;;5.30;3.20;;;;;;;24.53;44.42;100406.94;106545;1283;75662;-81